createdAt,value
2023-09-03T00:00:58.806Z,70.96
2023-09-03T00:03:26.514Z,70.96
2023-09-03T00:05:58.072Z,71.00
2023-09-03T00:08:28.506Z,70.99
2023-09-03T00:10:56.468Z,71.12
2023-09-03T00:13:24.236Z,71.21
2023-09-03T00:15:52.349Z,71.31
2023-09-03T00:18:20.614Z,71.36
2023-09-03T00:20:57.035Z,71.53
2023-09-03T00:23:25.200Z,71.61
2023-09-03T00:25:53.368Z,71.77
2023-09-03T00:28:21.595Z,71.83
2023-09-03T00:31:03.359Z,71.98
2023-09-03T00:33:31.947Z,71.94
2023-09-03T00:36:02.516Z,72.11
2023-09-03T00:38:30.504Z,72.15
2023-09-03T00:40:58.904Z,72.16
2023-09-03T00:43:28.757Z,72.36
2023-09-03T00:45:56.761Z,72.39
2023-09-03T00:48:28.294Z,72.46
2023-09-03T00:51:03.329Z,72.52
2023-09-03T00:53:34.762Z,72.52
2023-09-03T00:56:03.192Z,72.54
2023-09-03T00:58:31.587Z,72.66
2023-09-03T01:00:59.904Z,73.30
2023-09-03T01:03:28.147Z,73.93
2023-09-03T01:05:56.232Z,74.26
2023-09-03T01:08:24.906Z,74.42
2023-09-03T01:11:29.894Z,74.63
2023-09-03T01:14:01.723Z,74.71
2023-09-03T01:16:34.800Z,74.87
2023-09-03T01:19:10.366Z,75.10
2023-09-03T01:21:56.312Z,75.23
2023-09-03T01:24:36.007Z,75.47
2023-09-03T01:27:18.635Z,75.62
2023-09-03T01:29:47.323Z,75.44
2023-09-03T01:32:15.940Z,75.34
2023-09-03T01:34:45.393Z,75.22
2023-09-03T01:37:14.190Z,75.09
2023-09-03T01:39:41.853Z,74.98
2023-09-03T01:42:09.541Z,75.24
2023-09-03T01:44:37.858Z,75.55
2023-09-03T01:47:31.519Z,75.95
2023-09-03T01:50:50.889Z,76.25
2023-09-03T01:53:27.487Z,76.29
2023-09-03T01:55:58.753Z,76.47
2023-09-03T01:58:31.572Z,76.66
2023-09-03T02:01:02.228Z,76.71
2023-09-03T02:03:31.614Z,76.78
2023-09-03T02:05:59.356Z,76.86
2023-09-03T02:08:27.036Z,76.81
2023-09-03T02:10:54.815Z,76.90
2023-09-03T02:13:23.000Z,77.04
2023-09-03T02:15:51.562Z,77.25
2023-09-03T02:18:19.985Z,77.40
2023-09-03T02:20:48.288Z,77.41
2023-09-03T02:23:17.452Z,77.33
2023-09-03T02:25:47.966Z,77.10
2023-09-03T02:28:16.059Z,77.04
2023-09-03T02:30:44.038Z,76.83
2023-09-03T02:33:12.027Z,76.60
2023-09-03T02:35:39.929Z,76.57
2023-09-03T02:38:07.836Z,76.53
2023-09-03T02:40:35.884Z,76.46
2023-09-03T02:43:05.902Z,76.36
2023-09-03T02:45:33.802Z,76.23
2023-09-03T02:48:02.639Z,76.08
2023-09-03T02:50:30.593Z,76.02
2023-09-03T02:52:58.689Z,76.12
2023-09-03T02:55:26.684Z,76.15
2023-09-03T02:57:54.614Z,76.19
2023-09-03T03:00:24.564Z,76.18
2023-09-03T03:02:53.678Z,76.23
2023-09-03T03:05:21.677Z,76.20
2023-09-03T03:07:49.609Z,76.22
2023-09-03T03:10:18.650Z,76.27
2023-09-03T03:12:46.583Z,76.39
2023-09-03T03:15:14.676Z,76.54
2023-09-03T03:17:42.545Z,76.53
2023-09-03T03:20:10.912Z,76.59
2023-09-03T03:22:38.505Z,76.54
2023-09-03T03:25:06.787Z,76.55
2023-09-03T03:27:35.747Z,76.56
2023-09-03T03:30:03.719Z,76.52
2023-09-03T03:32:32.494Z,76.50
2023-09-03T03:35:00.378Z,76.54
2023-09-03T03:37:28.043Z,76.58
2023-09-03T03:39:55.783Z,76.69
2023-09-03T03:42:23.479Z,76.71
2023-09-03T03:44:51.109Z,76.74
2023-09-03T03:47:18.729Z,76.70
2023-09-03T03:49:46.380Z,76.66
2023-09-03T03:52:14.080Z,76.70
2023-09-03T03:54:41.760Z,76.83
2023-09-03T03:57:09.410Z,76.88
2023-09-03T03:59:37.807Z,76.86
2023-09-03T04:02:05.690Z,76.84
2023-09-03T04:04:33.402Z,76.76
2023-09-03T04:07:01.041Z,76.54
2023-09-03T04:09:28.611Z,76.31
2023-09-03T04:11:57.826Z,76.45
2023-09-03T04:14:25.502Z,76.70
2023-09-03T04:16:53.387Z,76.80
2023-09-03T04:19:21.362Z,76.82
2023-09-03T04:21:49.368Z,76.84
2023-09-03T04:24:17.282Z,76.81
2023-09-03T04:26:45.277Z,76.61
2023-09-03T04:29:13.282Z,76.49
2023-09-03T04:31:41.876Z,76.57
2023-09-03T04:34:10.187Z,76.66
2023-09-03T04:36:38.040Z,76.65
2023-09-03T04:39:06.395Z,76.48
2023-09-03T04:41:34.531Z,76.28
2023-09-03T04:44:10.306Z,76.08
2023-09-03T04:46:38.640Z,75.92
2023-09-03T04:49:06.532Z,75.86
2023-09-03T04:51:36.329Z,75.84
2023-09-03T04:54:04.574Z,75.83
2023-09-03T04:56:32.510Z,75.94
2023-09-03T04:59:00.419Z,75.99
2023-09-03T05:01:28.575Z,76.03
2023-09-03T05:03:56.515Z,76.00
2023-09-03T05:06:26.893Z,75.96
2023-09-03T05:08:54.742Z,75.78
2023-09-03T05:11:22.669Z,75.66
2023-09-03T05:13:50.659Z,75.68
2023-09-03T05:16:18.893Z,75.67
2023-09-03T05:18:46.893Z,75.54
2023-09-03T05:21:14.976Z,75.49
2023-09-03T05:23:47.910Z,75.41
2023-09-03T05:26:15.919Z,75.37
2023-09-03T05:28:43.836Z,75.40
2023-09-03T05:31:11.914Z,75.69
2023-09-03T05:33:41.025Z,75.99
2023-09-03T05:36:12.448Z,76.40
2023-09-03T05:38:44.401Z,76.57
2023-09-03T05:41:14.282Z,76.78
2023-09-03T05:43:42.175Z,76.88
2023-09-03T05:46:10.279Z,76.98
2023-09-03T05:48:38.431Z,76.99
2023-09-03T05:51:06.868Z,77.00
2023-09-03T05:53:35.260Z,76.91
2023-09-03T05:56:10.743Z,77.40
2023-09-03T05:58:39.624Z,78.15
2023-09-03T06:01:10.080Z,78.68
2023-09-03T06:03:39.888Z,78.99
2023-09-03T06:06:12.141Z,79.04
2023-09-03T06:08:40.152Z,79.11
2023-09-03T06:11:09.636Z,79.30
2023-09-03T06:13:38.270Z,79.35
2023-09-03T06:16:06.167Z,79.44
2023-09-03T06:18:34.194Z,79.30
2023-09-03T06:21:02.303Z,79.30
2023-09-03T06:23:30.156Z,79.34
2023-09-03T06:25:58.121Z,79.43
2023-09-03T06:28:29.558Z,79.41
2023-09-03T06:31:02.705Z,79.27
2023-09-03T06:33:31.935Z,78.98
2023-09-03T06:35:59.801Z,78.46
2023-09-03T06:38:27.736Z,78.08
2023-09-03T06:40:55.575Z,77.81
2023-09-03T06:43:23.459Z,77.16
2023-09-03T06:45:51.408Z,76.99
2023-09-03T06:48:19.968Z,76.38
2023-09-03T06:50:49.664Z,76.36
2023-09-03T06:53:17.683Z,76.48
2023-09-03T06:55:49.064Z,76.63
2023-09-03T06:58:17.019Z,76.58
2023-09-03T07:00:46.282Z,76.39
2023-09-03T07:03:16.055Z,76.26
2023-09-03T07:05:43.983Z,76.02
2023-09-03T07:08:11.933Z,75.62
2023-09-03T07:10:39.713Z,75.36
2023-09-03T07:13:09.990Z,75.05
2023-09-03T07:15:38.054Z,75.16
2023-09-03T07:18:06.307Z,74.93
2023-09-03T07:20:34.062Z,74.98
2023-09-03T07:23:01.945Z,75.17
2023-09-03T07:25:36.577Z,75.25
2023-09-03T07:28:04.714Z,75.28
2023-09-03T07:30:32.718Z,75.19
2023-09-03T07:33:00.445Z,75.15
2023-09-03T07:35:32.197Z,75.32
2023-09-03T07:37:59.964Z,75.08
2023-09-03T07:40:28.818Z,75.31
2023-09-03T07:42:56.471Z,75.32
2023-09-03T07:45:24.555Z,75.22
2023-09-03T07:47:52.466Z,75.16
2023-09-03T07:50:20.193Z,74.85
2023-09-03T07:52:47.810Z,73.89
2023-09-03T07:55:17.159Z,73.45
2023-09-03T07:57:45.034Z,72.95
2023-09-03T08:00:14.195Z,72.58
2023-09-03T08:02:41.994Z,71.76
2023-09-03T08:05:13.245Z,71.08
2023-09-03T08:07:41.012Z,71.07
2023-09-03T08:10:09.296Z,70.68
2023-09-03T08:12:37.004Z,70.43
2023-09-03T08:15:04.943Z,70.05
2023-09-03T08:17:33.882Z,69.20
2023-09-03T08:20:03.874Z,68.49
2023-09-03T08:22:32.989Z,67.26
2023-09-03T08:25:00.619Z,66.79
2023-09-03T08:27:28.214Z,67.01
2023-09-03T08:29:55.910Z,66.81
2023-09-03T08:32:24.041Z,67.09
2023-09-03T08:34:53.272Z,67.05
2023-09-03T08:37:21.310Z,66.81
2023-09-03T08:39:49.053Z,66.72
2023-09-03T08:42:17.156Z,66.81
2023-09-03T08:44:50.848Z,66.53
2023-09-03T08:47:18.923Z,66.62
2023-09-03T08:49:47.108Z,66.82
2023-09-03T08:52:17.376Z,66.65
2023-09-03T08:54:45.168Z,66.34
2023-09-03T08:57:13.487Z,66.33
2023-09-03T08:59:41.580Z,66.01
2023-09-03T09:02:14.256Z,65.11
2023-09-03T09:04:42.280Z,64.71
2023-09-03T09:07:11.270Z,64.35
2023-09-03T09:09:39.685Z,63.87
2023-09-03T09:12:29.712Z,63.39
2023-09-03T09:15:03.272Z,63.28
2023-09-03T09:17:38.295Z,62.61
2023-09-03T09:20:10.796Z,61.89
2023-09-03T09:22:43.157Z,61.46
2023-09-03T09:25:18.843Z,61.60
2023-09-03T09:27:47.850Z,61.64
2023-09-03T09:30:20.678Z,61.20
2023-09-03T09:32:49.273Z,59.98
2023-09-03T09:35:26.768Z,58.52
2023-09-03T09:37:54.440Z,58.13
2023-09-03T09:40:31.624Z,56.66
2023-09-03T09:43:02.280Z,55.67
2023-09-03T09:45:30.037Z,54.78
2023-09-03T09:48:08.711Z,53.80
2023-09-03T09:50:44.295Z,52.58
2023-09-03T09:53:28.492Z,50.72
2023-09-03T09:56:04.496Z,49.79
2023-09-03T09:58:39.957Z,49.25
2023-09-03T10:01:09.977Z,48.28
2023-09-03T10:03:50.951Z,47.71
2023-09-03T10:06:22.034Z,47.25
2023-09-03T10:08:52.989Z,46.94
2023-09-03T10:11:21.757Z,46.02
2023-09-03T10:13:50.484Z,44.93
2023-09-03T10:16:22.876Z,43.86
2023-09-03T10:18:52.057Z,42.67
2023-09-03T10:21:46.609Z,40.99
2023-09-03T10:24:20.591Z,40.72
2023-09-03T10:26:54.374Z,40.36
2023-09-03T10:29:24.897Z,40.24
2023-09-03T10:31:54.848Z,39.95
2023-09-03T10:34:23.008Z,39.82
2023-09-03T10:37:06.999Z,38.98
2023-09-03T10:39:36.544Z,39.00
2023-09-03T10:42:16.808Z,38.16
2023-09-03T10:44:55.758Z,37.65
2023-09-03T10:47:24.059Z,37.27
2023-09-03T10:49:53.837Z,37.30
2023-09-03T10:52:28.536Z,36.61
2023-09-03T10:55:17.469Z,36.41
2023-09-03T10:57:47.484Z,36.04
2023-09-03T11:00:18.336Z,35.47
2023-09-03T11:02:50.274Z,34.77
2023-09-03T11:05:27.939Z,34.48
2023-09-03T11:08:31.027Z,34.55
2023-09-03T11:11:00.567Z,34.65
2023-09-03T11:13:38.226Z,34.21
2023-09-03T11:16:07.003Z,33.43
2023-09-03T11:18:35.230Z,33.99
2023-09-03T11:21:03.389Z,35.09
2023-09-03T11:23:35.163Z,34.45
2023-09-03T11:26:07.308Z,33.91
2023-09-03T11:28:38.625Z,33.03
2023-09-03T11:31:06.750Z,32.57
2023-09-03T11:33:34.965Z,32.05
2023-09-03T11:36:02.950Z,31.19
2023-09-03T11:38:31.931Z,30.10
2023-09-03T11:41:00.585Z,30.26
2023-09-03T11:43:30.672Z,30.40
2023-09-03T11:46:05.371Z,30.40
2023-09-03T11:48:33.931Z,30.27
2023-09-03T11:51:21.860Z,29.83
2023-09-03T11:53:50.805Z,30.00
2023-09-03T11:56:21.898Z,30.06
2023-09-03T11:58:54.194Z,29.15
2023-09-03T12:01:22.476Z,28.63
2023-09-03T12:03:50.900Z,27.68
2023-09-03T12:06:19.791Z,27.55
2023-09-03T12:08:47.765Z,27.41
2023-09-03T12:11:15.865Z,27.05
2023-09-03T12:13:45.745Z,26.62
2023-09-03T12:16:17.353Z,26.25
2023-09-03T12:18:59.807Z,25.51
2023-09-03T12:21:38.339Z,25.70
2023-09-03T12:24:08.137Z,25.98
2023-09-03T12:26:37.438Z,25.99
2023-09-03T12:29:19.212Z,25.46
2023-09-03T12:31:47.380Z,25.11
2023-09-03T12:34:36.054Z,25.11
2023-09-03T12:37:05.258Z,25.53
2023-09-03T12:39:43.427Z,25.72
2023-09-03T12:42:12.089Z,25.97
2023-09-03T12:44:44.351Z,26.26
2023-09-03T12:47:12.431Z,26.71
2023-09-03T12:49:40.326Z,27.32
2023-09-03T12:52:08.211Z,28.15
2023-09-03T12:54:36.206Z,28.74
2023-09-03T12:57:04.097Z,29.68
2023-09-03T12:59:32.034Z,30.34
2023-09-03T13:01:59.970Z,31.14
2023-09-03T13:04:27.884Z,31.97
2023-09-03T13:06:55.665Z,32.79
2023-09-03T13:09:23.498Z,33.62
2023-09-03T13:11:51.488Z,34.67
2023-09-03T13:14:19.337Z,35.69
2023-09-03T13:16:47.256Z,36.55
2023-09-03T13:19:15.001Z,36.82
2023-09-03T13:21:42.747Z,36.84
2023-09-03T13:24:10.536Z,37.02
2023-09-03T13:26:38.513Z,37.20
2023-09-03T13:29:06.182Z,37.18
2023-09-03T13:31:34.091Z,37.61
2023-09-03T13:34:04.535Z,38.31
2023-09-03T13:36:32.327Z,38.82
2023-09-03T13:39:00.755Z,39.00
2023-09-03T13:41:28.648Z,39.05
2023-09-03T13:43:59.597Z,39.30
2023-09-03T13:46:27.928Z,39.93
2023-09-03T13:48:56.594Z,40.61
2023-09-03T13:51:24.286Z,41.35
2023-09-03T13:53:54.868Z,41.82
2023-09-03T13:56:22.576Z,41.68
2023-09-03T13:58:50.279Z,41.51
2023-09-03T14:01:19.383Z,41.48
2023-09-03T14:03:49.043Z,41.15
2023-09-03T14:06:17.916Z,40.24
2023-09-03T14:08:45.621Z,40.24
2023-09-03T14:11:13.369Z,40.29
2023-09-03T14:13:41.174Z,40.77
2023-09-03T14:16:15.536Z,41.22
2023-09-03T14:18:44.136Z,41.59
2023-09-03T14:21:11.777Z,42.16
2023-09-03T14:23:39.421Z,42.36
2023-09-03T14:26:14.056Z,42.48
2023-09-03T14:28:41.771Z,41.93
2023-09-03T14:31:09.397Z,42.00
2023-09-03T14:33:37.285Z,41.82
2023-09-03T14:36:05.289Z,41.87
2023-09-03T14:38:32.879Z,42.12
2023-09-03T14:41:00.564Z,41.95
2023-09-03T14:43:34.540Z,42.07
2023-09-03T14:46:02.747Z,42.55
2023-09-03T14:48:30.547Z,42.67
2023-09-03T14:50:58.697Z,43.09
2023-09-03T14:53:26.336Z,43.47
2023-09-03T14:55:53.973Z,44.20
2023-09-03T14:58:24.884Z,44.94
2023-09-03T15:00:52.694Z,45.91
2023-09-03T15:03:20.390Z,46.90
2023-09-03T15:05:48.220Z,47.69
2023-09-03T15:08:16.278Z,47.50
2023-09-03T15:10:43.951Z,47.90
2023-09-03T15:13:21.663Z,48.39
2023-09-03T15:15:51.564Z,48.85
2023-09-03T15:18:29.332Z,49.62
2023-09-03T15:20:57.359Z,50.18
2023-09-03T15:23:26.097Z,50.95
2023-09-03T15:25:54.299Z,51.44
2023-09-03T15:28:23.260Z,51.79
2023-09-03T15:30:52.025Z,51.89
2023-09-03T15:33:20.205Z,52.25
2023-09-03T15:35:48.158Z,52.84
2023-09-03T15:38:17.288Z,53.14
2023-09-03T15:40:45.292Z,53.70
2023-09-03T15:43:13.434Z,54.18
2023-09-03T15:45:41.896Z,54.52
2023-09-03T15:48:10.490Z,55.31
2023-09-03T15:50:42.844Z,55.85
2023-09-03T15:53:11.737Z,56.11
2023-09-03T15:55:41.067Z,56.81
2023-09-03T15:58:09.720Z,57.37
2023-09-03T16:00:39.809Z,58.14
2023-09-03T16:03:09.003Z,58.29
2023-09-03T16:05:37.018Z,58.58
2023-09-03T16:08:05.187Z,58.93
2023-09-03T16:10:38.461Z,59.38
2023-09-03T16:13:08.562Z,59.58
2023-09-03T16:15:44.156Z,60.13
2023-09-03T16:18:17.246Z,60.78
2023-09-03T16:20:45.187Z,61.64
2023-09-03T16:23:12.798Z,62.28
2023-09-03T16:25:40.487Z,62.91
2023-09-03T16:28:08.326Z,63.54
2023-09-03T16:30:36.041Z,64.33
2023-09-03T16:33:03.928Z,64.71
2023-09-03T16:35:33.847Z,65.04
2023-09-03T16:38:01.509Z,65.34
2023-09-03T16:40:32.254Z,66.09
2023-09-03T16:43:02.476Z,66.36
2023-09-03T16:45:30.093Z,66.81
2023-09-03T16:47:57.734Z,66.99
2023-09-03T16:50:25.347Z,67.18
2023-09-03T16:52:53.007Z,67.51
2023-09-03T16:55:20.607Z,67.72
2023-09-03T16:57:48.213Z,67.86
2023-09-03T17:00:15.977Z,68.09
2023-09-03T17:02:43.742Z,68.09
2023-09-03T17:05:11.415Z,68.07
2023-09-03T17:07:39.596Z,68.26
2023-09-03T17:10:08.692Z,68.55
2023-09-03T17:12:36.491Z,68.79
2023-09-03T17:15:04.332Z,69.12
2023-09-03T17:17:33.300Z,69.64
2023-09-03T17:20:01.564Z,69.70
2023-09-03T17:22:31.333Z,70.18
2023-09-03T17:24:58.915Z,70.47
2023-09-03T17:27:26.540Z,70.67
2023-09-03T17:29:55.667Z,70.90
2023-09-03T17:32:23.360Z,71.00
2023-09-03T17:34:52.959Z,71.44
2023-09-03T17:37:21.189Z,71.24
2023-09-03T17:39:48.783Z,71.44
2023-09-03T17:42:17.976Z,71.54
2023-09-03T17:44:46.677Z,71.62
2023-09-03T17:47:14.316Z,71.94
2023-09-03T17:49:42.294Z,72.16
2023-09-03T17:52:09.931Z,72.42
2023-09-03T17:54:37.579Z,72.68
2023-09-03T17:57:06.608Z,72.86
2023-09-03T17:59:34.312Z,72.94
2023-09-03T18:02:05.816Z,73.11
2023-09-03T18:04:36.739Z,73.14
2023-09-03T18:07:04.782Z,73.29
2023-09-03T18:09:32.604Z,73.35
2023-09-03T18:12:00.585Z,73.35
2023-09-03T18:14:28.790Z,73.29
2023-09-03T18:16:56.684Z,73.26
2023-09-03T18:19:24.350Z,73.02
2023-09-03T18:21:52.097Z,72.83
2023-09-03T18:24:20.012Z,72.61
2023-09-03T18:26:47.705Z,72.49
2023-09-03T18:29:15.352Z,72.58
2023-09-03T18:31:42.997Z,72.85
2023-09-03T18:34:10.611Z,72.95
2023-09-03T18:36:38.314Z,73.13
2023-09-03T18:39:06.248Z,73.34
2023-09-03T18:41:33.856Z,73.36
2023-09-03T18:44:01.466Z,73.46
2023-09-03T18:46:29.263Z,73.44
2023-09-03T18:48:57.536Z,73.41
2023-09-03T18:51:25.146Z,73.55
2023-09-03T18:53:52.796Z,73.67
2023-09-03T18:56:20.555Z,73.77
2023-09-03T18:58:48.194Z,73.89
2023-09-03T19:01:18.514Z,73.93
2023-09-03T19:03:48.851Z,73.98
2023-09-03T19:06:20.416Z,74.08
2023-09-03T19:08:48.534Z,74.03
2023-09-03T19:11:16.261Z,74.06
2023-09-03T19:13:43.911Z,74.15
2023-09-03T19:16:21.496Z,74.34
2023-09-03T19:18:49.867Z,74.34
2023-09-03T19:21:17.808Z,74.49
2023-09-03T19:23:45.608Z,74.60
2023-09-03T19:26:14.582Z,74.74
2023-09-03T19:28:43.001Z,74.87
2023-09-03T19:31:11.297Z,75.06
2023-09-03T19:33:39.321Z,75.29
2023-09-03T19:36:07.387Z,75.60
2023-09-03T19:38:35.923Z,75.76
2023-09-03T19:41:03.895Z,75.95
2023-09-03T19:43:31.789Z,76.06
2023-09-03T19:46:01.630Z,76.12
2023-09-03T19:48:35.356Z,76.13
2023-09-03T19:51:03.855Z,76.12
2023-09-03T19:53:33.082Z,76.06
2023-09-03T19:56:12.272Z,75.93
2023-09-03T19:58:40.310Z,75.77
2023-09-03T20:01:08.469Z,75.62
2023-09-03T20:03:36.573Z,75.37
2023-09-03T20:06:04.695Z,75.31
2023-09-03T20:08:33.281Z,75.26
2023-09-03T20:11:06.130Z,75.28
2023-09-03T20:13:34.303Z,75.17
2023-09-03T20:16:03.892Z,75.06
2023-09-03T20:18:32.112Z,74.99
2023-09-03T20:21:01.281Z,75.03
2023-09-03T20:23:29.740Z,75.13
2023-09-03T20:26:02.732Z,75.21
2023-09-03T20:28:45.178Z,75.20
2023-09-03T20:31:15.964Z,75.33
2023-09-03T20:33:44.511Z,75.48
2023-09-03T20:36:12.816Z,75.63
2023-09-03T20:38:41.636Z,75.66
2023-09-03T20:41:09.678Z,75.67
2023-09-03T20:43:37.397Z,75.78
2023-09-03T20:46:05.047Z,76.00
2023-09-03T20:48:33.711Z,76.00
2023-09-03T20:51:02.903Z,75.86
2023-09-03T20:53:31.665Z,75.62
2023-09-03T20:56:00.425Z,75.43
2023-09-03T20:58:28.820Z,75.20
2023-09-03T21:00:56.631Z,75.10
2023-09-03T21:03:24.498Z,75.31
2023-09-03T21:05:53.455Z,75.56
2023-09-03T21:08:23.615Z,75.80
2023-09-03T21:10:58.845Z,75.91
2023-09-03T21:13:27.202Z,75.84
2023-09-03T21:15:56.889Z,75.90
2023-09-03T21:18:26.702Z,75.94
2023-09-03T21:20:59.973Z,76.00
2023-09-03T21:23:28.118Z,76.07
2023-09-03T21:25:56.032Z,76.07
2023-09-03T21:28:24.282Z,76.13
2023-09-03T21:30:52.411Z,76.11
2023-09-03T21:33:20.527Z,75.99
2023-09-03T21:35:48.594Z,75.93
2023-09-03T21:38:16.494Z,75.97
2023-09-03T21:40:44.591Z,75.95
2023-09-03T21:43:12.512Z,75.99
2023-09-03T21:45:40.662Z,76.00
2023-09-03T21:48:08.881Z,76.19
2023-09-03T21:50:36.830Z,76.41
2023-09-03T21:53:05.123Z,76.62
2023-09-03T21:55:33.200Z,76.74
2023-09-03T21:58:01.124Z,76.86
2023-09-03T22:00:29.023Z,76.88
2023-09-03T22:02:57.010Z,76.94
2023-09-03T22:05:25.165Z,77.00
2023-09-03T22:07:53.111Z,76.98
2023-09-03T22:10:20.980Z,76.93
2023-09-03T22:12:48.817Z,76.95
2023-09-03T22:15:16.657Z,76.95
2023-09-03T22:17:44.438Z,77.01
2023-09-03T22:20:12.833Z,77.07
2023-09-03T22:22:40.462Z,77.18
2023-09-03T22:25:08.311Z,77.35
2023-09-03T22:27:35.993Z,77.49
2023-09-03T22:30:04.505Z,77.41
2023-09-03T22:32:34.015Z,77.20
2023-09-03T22:35:01.894Z,77.32
2023-09-03T22:37:33.216Z,77.49
2023-09-03T22:40:01.800Z,77.71
2023-09-03T22:42:31.464Z,77.92
2023-09-03T22:44:59.126Z,77.99
2023-09-03T22:47:29.824Z,78.07
2023-09-03T22:49:57.502Z,77.95
2023-09-03T22:52:25.157Z,77.95
2023-09-03T22:54:52.950Z,77.70
2023-09-03T22:57:20.600Z,77.49
2023-09-03T22:59:48.159Z,77.23
2023-09-03T23:02:15.917Z,77.06
2023-09-03T23:04:43.753Z,76.93
2023-09-03T23:07:11.460Z,76.89
2023-09-03T23:09:39.057Z,76.84
2023-09-03T23:12:06.865Z,76.82
2023-09-03T23:14:34.613Z,76.81
2023-09-03T23:17:02.467Z,76.77
2023-09-03T23:19:30.175Z,76.71
2023-09-03T23:21:57.911Z,76.67
2023-09-03T23:24:25.516Z,76.67
2023-09-03T23:26:53.144Z,76.87
2023-09-03T23:29:20.886Z,76.95
2023-09-03T23:31:48.636Z,76.97
2023-09-03T23:34:17.332Z,76.98
2023-09-03T23:36:45.151Z,77.11
2023-09-03T23:39:12.767Z,77.10
2023-09-03T23:41:40.410Z,77.08
2023-09-03T23:44:08.274Z,77.00
2023-09-03T23:46:35.996Z,76.95
2023-09-03T23:49:03.755Z,76.83
2023-09-03T23:51:34.460Z,76.85
2023-09-03T23:54:05.253Z,76.92
2023-09-03T23:56:33.206Z,76.92
2023-09-03T23:59:00.857Z,76.93
